createdAt,value
2022-10-19T00:01:10.335Z,73.80
2022-10-19T00:03:37.395Z,73.89
2022-10-19T00:06:21.479Z,74.39
2022-10-19T00:08:47.964Z,74.26
2022-10-19T00:11:14.432Z,74.15
2022-10-19T00:13:40.991Z,74.11
2022-10-19T00:16:11.617Z,73.74
2022-10-19T00:18:38.795Z,73.21
2022-10-19T00:21:07.259Z,73.78
2022-10-19T00:23:34.580Z,73.59
2022-10-19T00:26:01.583Z,73.58
2022-10-19T00:28:28.742Z,74.03
2022-10-19T00:30:55.604Z,73.40
2022-10-19T00:33:23.206Z,73.58
2022-10-19T00:35:51.196Z,73.35
2022-10-19T00:38:21.227Z,73.11
2022-10-19T00:40:48.733Z,73.66
2022-10-19T00:43:22.125Z,73.53
2022-10-19T00:45:48.694Z,73.17
2022-10-19T00:48:24.609Z,73.95
2022-10-19T00:50:54.084Z,73.52
2022-10-19T00:53:21.426Z,73.48
2022-10-19T00:55:48.047Z,73.41
2022-10-19T00:58:14.955Z,73.13
2022-10-19T01:00:41.561Z,73.41
2022-10-19T01:03:09.544Z,72.81
2022-10-19T01:05:36.387Z,73.53
2022-10-19T01:08:03.315Z,72.81
2022-10-19T01:11:00.821Z,73.53
2022-10-19T01:13:56.043Z,73.36
2022-10-19T01:16:25.414Z,73.25
2022-10-19T01:19:05.155Z,74.20
2022-10-19T01:21:48.754Z,73.64
2022-10-19T01:24:15.157Z,73.89
2022-10-19T01:26:53.706Z,74.05
2022-10-19T01:29:38.070Z,73.93
2022-10-19T01:32:15.887Z,74.43
2022-10-19T01:35:07.599Z,74.30
2022-10-19T01:37:38.355Z,74.77
2022-10-19T01:40:11.137Z,73.69
2022-10-19T01:42:56.206Z,74.33
2022-10-19T01:45:47.409Z,74.19
2022-10-19T01:48:28.736Z,73.97
2022-10-19T01:51:17.594Z,74.21
2022-10-19T01:53:49.813Z,74.16
2022-10-19T01:56:20.214Z,74.55
2022-10-19T01:58:47.483Z,73.75
2022-10-19T02:01:19.325Z,74.46
2022-10-19T02:03:48.909Z,74.33
2022-10-19T02:06:15.446Z,73.95
2022-10-19T02:08:47.684Z,74.18
2022-10-19T02:11:15.294Z,74.35
2022-10-19T02:13:44.395Z,74.64
2022-10-19T02:16:25.957Z,74.42
2022-10-19T02:18:55.014Z,74.50
2022-10-19T02:21:21.730Z,74.79
2022-10-19T02:23:49.423Z,74.55
2022-10-19T02:26:19.060Z,74.79
2022-10-19T02:28:46.024Z,74.86
2022-10-19T02:31:13.091Z,74.95
2022-10-19T02:33:39.737Z,74.51
2022-10-19T02:36:06.440Z,74.65
2022-10-19T02:38:33.167Z,74.56
2022-10-19T02:41:23.311Z,75.12
2022-10-19T02:43:54.611Z,74.46
2022-10-19T02:46:31.772Z,74.49
2022-10-19T02:48:59.081Z,74.41
2022-10-19T02:51:37.248Z,74.59
2022-10-19T02:54:05.995Z,74.83
2022-10-19T02:56:33.915Z,74.90
2022-10-19T02:59:01.412Z,74.43
2022-10-19T03:01:27.850Z,74.21
2022-10-19T03:03:54.305Z,74.31
2022-10-19T03:06:20.765Z,74.25
2022-10-19T03:08:47.249Z,75.07
2022-10-19T03:11:13.678Z,74.81
2022-10-19T03:13:41.284Z,74.48
2022-10-19T03:16:11.835Z,75.30
2022-10-19T03:18:38.463Z,74.67
2022-10-19T03:21:07.864Z,74.96
2022-10-19T03:23:34.914Z,75.12
2022-10-19T03:26:02.200Z,74.81
2022-10-19T03:28:28.846Z,75.15
2022-10-19T03:30:55.832Z,75.19
2022-10-19T03:33:23.207Z,75.37
2022-10-19T03:35:49.662Z,75.29
2022-10-19T03:38:16.521Z,74.89
2022-10-19T03:40:43.317Z,75.42
2022-10-19T03:43:09.727Z,75.04
2022-10-19T03:45:36.227Z,75.08
2022-10-19T03:48:02.745Z,75.35
2022-10-19T03:50:29.204Z,74.94
2022-10-19T03:52:55.807Z,75.24
2022-10-19T03:55:22.337Z,75.62
2022-10-19T03:57:48.792Z,75.75
2022-10-19T04:00:15.616Z,75.10
2022-10-19T04:02:41.983Z,75.93
2022-10-19T04:05:08.622Z,76.28
2022-10-19T04:07:35.161Z,76.14
2022-10-19T04:10:01.946Z,76.60
2022-10-19T04:12:28.477Z,76.91
2022-10-19T04:14:58.112Z,77.11
2022-10-19T04:17:25.479Z,77.50
2022-10-19T04:19:51.907Z,77.44
2022-10-19T04:22:18.378Z,77.57
2022-10-19T04:24:44.829Z,77.47
2022-10-19T04:27:11.320Z,77.93
2022-10-19T04:29:37.882Z,78.34
2022-10-19T04:32:04.388Z,78.17
2022-10-19T04:34:30.904Z,78.59
2022-10-19T04:36:57.357Z,78.34
2022-10-19T04:39:23.809Z,78.33
2022-10-19T04:41:50.265Z,78.28
2022-10-19T04:44:16.768Z,77.94
2022-10-19T04:46:43.238Z,78.24
2022-10-19T04:49:09.737Z,78.30
2022-10-19T04:51:36.187Z,78.05
2022-10-19T04:54:03.787Z,77.92
2022-10-19T04:56:30.546Z,78.16
2022-10-19T04:58:58.402Z,78.16
2022-10-19T05:01:26.044Z,78.18
2022-10-19T05:04:01.394Z,78.24
2022-10-19T05:06:28.954Z,77.52
2022-10-19T05:08:56.106Z,77.21
2022-10-19T05:11:22.792Z,77.76
2022-10-19T05:13:49.337Z,78.17
2022-10-19T05:16:18.592Z,78.04
2022-10-19T05:18:49.717Z,78.23
2022-10-19T05:21:17.341Z,78.44
2022-10-19T05:23:44.350Z,78.31
2022-10-19T05:26:14.101Z,78.22
2022-10-19T05:28:40.649Z,78.01
2022-10-19T05:31:12.954Z,78.07
2022-10-19T05:33:40.056Z,78.01
2022-10-19T05:36:13.406Z,78.07
2022-10-19T05:38:40.027Z,77.63
2022-10-19T05:41:06.791Z,77.58
2022-10-19T05:43:33.488Z,77.55
2022-10-19T05:46:08.017Z,77.54
2022-10-19T05:48:35.191Z,78.07
2022-10-19T05:51:03.628Z,77.62
2022-10-19T05:53:30.134Z,77.56
2022-10-19T05:55:57.095Z,77.68
2022-10-19T05:58:24.343Z,78.00
2022-10-19T06:00:52.951Z,78.17
2022-10-19T06:03:19.462Z,77.93
2022-10-19T06:05:45.925Z,77.78
2022-10-19T06:08:12.407Z,77.68
2022-10-19T06:10:38.848Z,78.32
2022-10-19T06:13:05.369Z,78.18
2022-10-19T06:15:36.189Z,78.76
2022-10-19T06:18:07.422Z,78.60
2022-10-19T06:20:35.367Z,78.50
2022-10-19T06:23:02.317Z,78.60
2022-10-19T06:25:30.022Z,78.53
2022-10-19T06:27:56.515Z,78.64
2022-10-19T06:30:23.096Z,78.63
2022-10-19T06:32:49.673Z,78.83
2022-10-19T06:35:16.245Z,78.77
2022-10-19T06:37:43.055Z,78.39
2022-10-19T06:40:10.571Z,78.25
2022-10-19T06:42:37.338Z,78.38
2022-10-19T06:45:10.842Z,78.62
2022-10-19T06:47:38.170Z,78.30
2022-10-19T06:50:06.309Z,78.65
2022-10-19T06:52:34.736Z,78.85
2022-10-19T06:55:02.211Z,78.23
2022-10-19T06:57:28.999Z,78.45
2022-10-19T06:59:55.484Z,77.99
2022-10-19T07:02:22.050Z,78.05
2022-10-19T07:04:48.560Z,78.37
2022-10-19T07:07:15.062Z,78.21
2022-10-19T07:09:41.499Z,78.88
2022-10-19T07:12:08.547Z,78.29
2022-10-19T07:14:35.005Z,78.73
2022-10-19T07:17:01.460Z,78.88
2022-10-19T07:19:27.985Z,78.56
2022-10-19T07:21:54.587Z,78.87
2022-10-19T07:24:21.133Z,78.67
2022-10-19T07:26:47.577Z,78.51
2022-10-19T07:29:14.108Z,79.33
2022-10-19T07:31:40.616Z,79.03
2022-10-19T07:34:07.453Z,79.34
2022-10-19T07:36:35.703Z,79.01
2022-10-19T07:39:04.025Z,79.02
2022-10-19T07:41:30.498Z,78.93
2022-10-19T07:43:57.121Z,79.55
2022-10-19T07:46:26.060Z,79.09
2022-10-19T07:48:53.104Z,78.91
2022-10-19T07:51:20.932Z,79.36
2022-10-19T07:53:47.433Z,79.00
2022-10-19T07:56:16.452Z,78.87
2022-10-19T07:58:43.340Z,78.83
2022-10-19T08:01:15.263Z,78.61
2022-10-19T08:04:31.792Z,78.61
2022-10-19T08:06:29.244Z,78.50
2022-10-19T08:08:56.304Z,78.30
2022-10-19T08:11:28.986Z,78.03
2022-10-19T08:13:55.947Z,78.28
2022-10-19T08:16:27.180Z,78.31
2022-10-19T08:18:58.276Z,78.02
2022-10-19T08:21:26.464Z,77.37
2022-10-19T08:23:53.518Z,76.94
2022-10-19T08:26:20.928Z,77.62
2022-10-19T08:28:47.584Z,76.82
2022-10-19T08:31:17.033Z,76.96
2022-10-19T08:33:44.263Z,76.82
2022-10-19T08:36:12.659Z,76.21
2022-10-19T08:38:40.010Z,76.92
2022-10-19T08:41:21.916Z,76.52
2022-10-19T08:43:59.751Z,75.48
2022-10-19T08:46:56.016Z,75.17
2022-10-19T08:49:25.691Z,74.77
2022-10-19T08:51:59.307Z,74.48
2022-10-19T08:54:35.562Z,74.20
2022-10-19T08:57:26.790Z,73.62
2022-10-19T08:59:56.845Z,73.87
2022-10-19T09:02:55.635Z,73.06
2022-10-19T09:05:55.759Z,73.04
2022-10-19T09:08:22.255Z,73.50
2022-10-19T09:10:54.184Z,73.09
2022-10-19T09:14:03.737Z,72.34
2022-10-19T09:16:30.412Z,72.11
2022-10-19T09:18:57.020Z,72.20
2022-10-19T09:21:36.831Z,71.77
2022-10-19T09:24:16.298Z,71.33
2022-10-19T09:26:54.376Z,71.23
2022-10-19T09:29:20.954Z,70.92
2022-10-19T09:31:53.165Z,70.92
2022-10-19T09:34:49.155Z,71.03
2022-10-19T09:37:24.816Z,70.20
2022-10-19T09:39:54.975Z,69.77
2022-10-19T09:42:31.213Z,69.09
2022-10-19T09:45:00.793Z,69.33
2022-10-19T09:47:35.337Z,68.25
2022-10-19T09:50:22.288Z,67.93
2022-10-19T09:52:55.255Z,68.17
2022-10-19T09:55:33.753Z,68.09
2022-10-19T09:58:29.133Z,67.65
2022-10-19T10:00:59.077Z,67.91
2022-10-19T10:03:33.015Z,67.31
2022-10-19T10:06:05.605Z,67.11
2022-10-19T10:08:36.313Z,66.68
2022-10-19T10:11:12.828Z,66.49
2022-10-19T10:13:59.505Z,66.52
2022-10-19T10:16:29.859Z,66.27
2022-10-19T10:19:03.728Z,66.20
2022-10-19T10:21:45.331Z,65.80
2022-10-19T10:24:11.659Z,65.19
2022-10-19T10:26:44.234Z,65.16
2022-10-19T10:29:37.806Z,64.96
2022-10-19T10:32:16.146Z,64.77
2022-10-19T10:34:57.290Z,65.02
2022-10-19T10:37:42.649Z,64.76
2022-10-19T10:40:35.961Z,64.63
2022-10-19T10:43:06.273Z,65.00
2022-10-19T10:45:39.654Z,64.27
2022-10-19T10:48:23.541Z,64.10
2022-10-19T10:50:50.230Z,64.05
2022-10-19T10:53:42.573Z,63.08
2022-10-19T10:56:30.340Z,63.61
2022-10-19T10:59:05.186Z,63.41
2022-10-19T11:01:45.464Z,63.02
2022-10-19T11:04:17.415Z,63.02
2022-10-19T11:06:51.590Z,62.92
2022-10-19T11:09:29.230Z,62.50
2022-10-19T11:11:59.830Z,62.45
2022-10-19T11:15:03.109Z,61.24
2022-10-19T11:17:34.006Z,61.59
2022-10-19T11:20:00.624Z,61.45
2022-10-19T11:22:38.766Z,60.65
2022-10-19T11:25:31.281Z,59.84
2022-10-19T11:28:08.093Z,59.72
2022-10-19T11:30:43.276Z,59.43
2022-10-19T11:33:21.914Z,59.35
2022-10-19T11:35:59.440Z,59.37
2022-10-19T11:38:44.633Z,60.03
2022-10-19T11:41:38.529Z,58.33
2022-10-19T11:44:16.854Z,58.08
2022-10-19T11:47:04.448Z,58.80
2022-10-19T11:49:44.568Z,59.16
2022-10-19T11:52:25.856Z,59.14
2022-10-19T11:55:15.753Z,58.41
2022-10-19T11:58:03.855Z,58.14
2022-10-19T12:00:40.342Z,57.36
2022-10-19T12:03:34.329Z,57.54
2022-10-19T12:06:16.729Z,57.34
2022-10-19T12:09:04.642Z,56.71
2022-10-19T12:11:43.045Z,56.24
2022-10-19T12:14:16.216Z,56.38
2022-10-19T12:16:47.671Z,55.33
2022-10-19T12:19:26.021Z,55.68
2022-10-19T12:21:58.514Z,55.57
2022-10-19T12:24:26.231Z,55.99
2022-10-19T12:26:54.729Z,55.68
2022-10-19T12:29:28.175Z,56.22
2022-10-19T12:31:57.311Z,55.77
2022-10-19T12:34:44.404Z,55.69
2022-10-19T12:37:38.104Z,55.65
2022-10-19T12:40:29.183Z,54.95
2022-10-19T12:43:17.996Z,53.94
2022-10-19T12:46:10.879Z,53.97
2022-10-19T12:48:37.368Z,53.83
2022-10-19T12:51:09.989Z,54.38
2022-10-19T12:53:40.354Z,54.23
2022-10-19T12:56:09.851Z,53.77
2022-10-19T12:58:47.726Z,53.64
2022-10-19T13:01:35.453Z,52.54
2022-10-19T13:04:14.873Z,52.68
2022-10-19T13:06:44.901Z,53.61
2022-10-19T13:09:29.730Z,53.43
2022-10-19T13:12:17.674Z,52.60
2022-10-19T13:14:53.382Z,52.50
2022-10-19T13:17:35.148Z,51.66
2022-10-19T13:20:13.748Z,51.58
2022-10-19T13:22:49.122Z,50.65
2022-10-19T13:25:24.115Z,50.67
2022-10-19T13:27:52.299Z,51.09
2022-10-19T13:30:36.965Z,50.70
2022-10-19T13:33:28.205Z,50.84
2022-10-19T13:36:15.078Z,51.61
2022-10-19T13:38:50.666Z,52.14
2022-10-19T13:41:26.995Z,52.51
2022-10-19T13:44:11.475Z,51.35
2022-10-19T13:46:52.276Z,51.63
2022-10-19T13:50:11.435Z,52.29
2022-10-19T13:52:53.768Z,51.74
2022-10-19T13:55:45.214Z,52.27
2022-10-19T13:58:19.471Z,51.78
2022-10-19T14:01:30.837Z,51.84
2022-10-19T14:04:51.650Z,52.73
2022-10-19T14:07:29.289Z,53.42
2022-10-19T14:10:04.632Z,53.82
2022-10-19T14:12:36.553Z,52.90
2022-10-19T14:15:18.215Z,52.99
2022-10-19T14:17:44.983Z,52.78
2022-10-19T14:20:35.856Z,52.34
2022-10-19T14:23:24.187Z,52.30
2022-10-19T14:25:57.487Z,52.29
2022-10-19T14:28:24.800Z,51.78
2022-10-19T14:31:17.071Z,51.41
2022-10-19T14:33:47.586Z,51.89
2022-10-19T14:36:17.648Z,51.11
2022-10-19T14:38:44.319Z,51.13
2022-10-19T14:41:28.799Z,49.91
2022-10-19T14:43:59.707Z,50.41
2022-10-19T14:46:34.286Z,49.73
2022-10-19T14:49:03.272Z,50.50
2022-10-19T14:51:42.527Z,50.69
2022-10-19T14:54:29.176Z,50.59
2022-10-19T14:57:12.342Z,50.54
2022-10-19T14:59:49.796Z,50.37
2022-10-19T15:02:38.252Z,50.72
2022-10-19T15:05:06.517Z,51.29
2022-10-19T15:07:39.821Z,51.82
2022-10-19T15:10:20.082Z,51.53
2022-10-19T15:12:47.502Z,51.97
2022-10-19T15:15:26.265Z,51.55
2022-10-19T15:17:59.962Z,51.48
2022-10-19T15:20:44.248Z,51.62
2022-10-19T15:23:32.202Z,51.50
2022-10-19T15:26:07.218Z,52.10
2022-10-19T15:28:41.422Z,52.08
2022-10-19T15:31:15.684Z,52.24
2022-10-19T15:33:48.816Z,52.77
2022-10-19T15:36:15.615Z,52.96
2022-10-19T15:38:42.636Z,53.44
2022-10-19T15:41:18.224Z,53.92
2022-10-19T15:43:52.944Z,53.93
2022-10-19T15:46:32.771Z,54.05
2022-10-19T15:49:17.495Z,54.57
2022-10-19T15:51:48.258Z,54.55
2022-10-19T15:54:16.722Z,54.96
2022-10-19T15:56:50.617Z,55.12
2022-10-19T15:59:19.590Z,55.50
2022-10-19T16:01:47.167Z,55.95
2022-10-19T16:04:14.899Z,56.16
2022-10-19T16:06:44.024Z,56.60
2022-10-19T16:09:20.160Z,56.85
2022-10-19T16:11:47.251Z,57.25
2022-10-19T16:14:13.914Z,57.55
2022-10-19T16:16:40.709Z,57.86
2022-10-19T16:19:07.467Z,58.22
2022-10-19T16:21:35.909Z,58.73
2022-10-19T16:24:02.438Z,58.86
2022-10-19T16:26:29.327Z,59.39
2022-10-19T16:28:56.649Z,59.53
2022-10-19T16:31:24.068Z,59.97
2022-10-19T16:33:50.818Z,59.81
2022-10-19T16:36:17.399Z,60.45
2022-10-19T16:38:43.795Z,60.55
2022-10-19T16:41:10.956Z,60.94
2022-10-19T16:43:37.918Z,60.82
2022-10-19T16:46:05.223Z,61.11
2022-10-19T16:48:32.538Z,61.48
2022-10-19T16:51:08.200Z,61.58
2022-10-19T16:53:35.338Z,61.71
2022-10-19T16:56:10.581Z,61.90
2022-10-19T16:58:37.290Z,62.21
2022-10-19T17:01:17.259Z,62.38
2022-10-19T17:03:44.815Z,62.83
2022-10-19T17:06:11.910Z,62.61
2022-10-19T17:09:14.288Z,62.69
2022-10-19T17:11:31.430Z,63.39
2022-10-19T17:14:00.615Z,63.25
2022-10-19T17:16:29.558Z,63.24
2022-10-19T17:18:57.533Z,63.36
2022-10-19T17:21:29.598Z,63.85
2022-10-19T17:23:58.985Z,64.22
2022-10-19T17:26:31.420Z,63.94
2022-10-19T17:28:59.273Z,64.32
2022-10-19T17:31:26.561Z,64.85
2022-10-19T17:33:53.582Z,64.98
2022-10-19T17:36:23.100Z,65.23
2022-10-19T17:38:49.601Z,65.30
2022-10-19T17:41:17.991Z,65.21
2022-10-19T17:43:46.159Z,65.72
2022-10-19T17:46:15.264Z,66.25
2022-10-19T17:48:42.809Z,65.94
2022-10-19T17:51:14.931Z,66.37
2022-10-19T17:53:46.014Z,66.78
2022-10-19T17:56:14.579Z,66.35
2022-10-19T17:58:41.449Z,66.82
2022-10-19T18:01:08.950Z,67.08
2022-10-19T18:03:37.037Z,66.91
2022-10-19T18:06:05.637Z,67.03
2022-10-19T18:08:38.472Z,67.36
2022-10-19T18:11:11.166Z,67.75
2022-10-19T18:13:38.615Z,67.48
2022-10-19T18:16:15.072Z,67.70
2022-10-19T18:18:43.335Z,67.73
2022-10-19T18:21:13.045Z,67.61
2022-10-19T18:23:40.236Z,67.79
2022-10-19T18:26:09.953Z,67.91
2022-10-19T18:28:36.657Z,67.87
2022-10-19T18:31:12.215Z,68.62
2022-10-19T18:33:39.087Z,68.29
2022-10-19T18:36:07.515Z,68.78
2022-10-19T18:38:34.836Z,68.77
2022-10-19T18:41:06.087Z,68.72
2022-10-19T18:43:32.956Z,69.13
2022-10-19T18:46:00.757Z,68.97
2022-10-19T18:48:29.462Z,68.96
2022-10-19T18:50:57.208Z,69.00
2022-10-19T18:53:24.228Z,69.03
2022-10-19T18:56:01.853Z,69.24
2022-10-19T18:58:28.418Z,69.21
2022-10-19T19:01:06.995Z,70.07
2022-10-19T19:03:34.600Z,69.29
2022-10-19T19:06:10.610Z,69.67
2022-10-19T19:08:37.389Z,69.64
2022-10-19T19:11:12.736Z,69.64
2022-10-19T19:13:40.499Z,69.83
2022-10-19T19:16:08.182Z,69.67
2022-10-19T19:18:35.675Z,69.85
2022-10-19T19:21:03.839Z,69.85
2022-10-19T19:23:30.834Z,70.05
2022-10-19T19:25:57.515Z,70.05
2022-10-19T19:28:24.026Z,70.55
2022-10-19T19:30:50.451Z,70.32
2022-10-19T19:33:16.922Z,70.20
2022-10-19T19:35:44.712Z,70.61
2022-10-19T19:38:12.325Z,70.41
2022-10-19T19:40:43.986Z,70.11
2022-10-19T19:43:11.690Z,70.09
2022-10-19T19:45:38.926Z,70.58
2022-10-19T19:48:06.451Z,70.55
2022-10-19T19:50:33.893Z,71.01
2022-10-19T19:53:01.455Z,70.28
2022-10-19T19:55:28.376Z,70.42
2022-10-19T19:57:55.213Z,71.02
2022-10-19T20:00:22.824Z,70.72
2022-10-19T20:02:56.562Z,70.62
2022-10-19T20:05:24.608Z,70.75
2022-10-19T20:07:51.559Z,70.42
2022-10-19T20:10:18.826Z,70.17
2022-10-19T20:12:46.881Z,70.46
2022-10-19T20:15:16.430Z,70.49
2022-10-19T20:17:43.524Z,70.30
2022-10-19T20:20:11.480Z,70.42
2022-10-19T20:22:38.377Z,70.45
2022-10-19T20:25:05.412Z,70.81
2022-10-19T20:27:36.086Z,70.29
2022-10-19T20:30:03.377Z,70.62
2022-10-19T20:32:30.656Z,70.52
2022-10-19T20:34:57.328Z,70.42
2022-10-19T20:37:24.457Z,70.80
2022-10-19T20:39:51.206Z,70.47
2022-10-19T20:42:18.948Z,71.15
2022-10-19T20:44:45.612Z,71.21
2022-10-19T20:47:12.328Z,70.46
2022-10-19T20:49:38.791Z,70.89
2022-10-19T20:52:05.245Z,70.83
2022-10-19T20:54:31.867Z,70.51
2022-10-19T20:56:58.717Z,70.63
2022-10-19T20:59:25.397Z,70.70
2022-10-19T21:01:53.183Z,70.69
2022-10-19T21:04:19.887Z,71.00
2022-10-19T21:06:49.232Z,70.90
2022-10-19T21:09:22.194Z,71.18
2022-10-19T21:11:50.999Z,70.93
2022-10-19T21:14:26.915Z,71.21
2022-10-19T21:16:56.400Z,71.08
2022-10-19T21:19:24.274Z,71.15
2022-10-19T21:21:58.883Z,71.52
2022-10-19T21:24:28.277Z,71.20
2022-10-19T21:26:54.821Z,71.37
2022-10-19T21:29:21.611Z,71.53
2022-10-19T21:31:50.002Z,71.35
2022-10-19T21:34:19.436Z,71.30
2022-10-19T21:36:46.663Z,71.78
2022-10-19T21:39:13.115Z,71.49
2022-10-19T21:41:39.573Z,71.93
2022-10-19T21:44:06.029Z,71.96
2022-10-19T21:46:32.552Z,71.68
2022-10-19T21:48:59.003Z,71.86
2022-10-19T21:51:46.018Z,72.10
2022-10-19T21:54:15.304Z,72.31
2022-10-19T21:56:42.144Z,72.29
2022-10-19T21:59:08.839Z,72.43
2022-10-19T22:01:38.718Z,71.89
2022-10-19T22:04:13.437Z,72.33
2022-10-19T22:06:40.466Z,72.13
2022-10-19T22:09:08.771Z,72.75
2022-10-19T22:11:35.428Z,72.39
2022-10-19T22:14:03.492Z,72.58
2022-10-19T22:16:31.761Z,72.55
2022-10-19T22:18:58.850Z,72.72
2022-10-19T22:21:29.550Z,72.78
2022-10-19T22:23:58.741Z,72.52
2022-10-19T22:26:28.256Z,72.85
2022-10-19T22:28:59.187Z,72.48
2022-10-19T22:31:27.164Z,73.09
2022-10-19T22:33:53.769Z,73.13
2022-10-19T22:36:20.735Z,72.89
2022-10-19T22:38:47.432Z,72.85
2022-10-19T22:41:13.878Z,73.35
2022-10-19T22:43:40.305Z,73.23
2022-10-19T22:46:06.901Z,73.19
2022-10-19T22:48:33.362Z,73.67
2022-10-19T22:50:59.770Z,73.44
2022-10-19T22:53:26.194Z,73.36
2022-10-19T22:55:52.685Z,73.42
2022-10-19T22:58:19.289Z,73.46
2022-10-19T23:00:45.932Z,73.97
2022-10-19T23:03:12.370Z,73.69
2022-10-19T23:05:38.808Z,73.56
2022-10-19T23:08:05.515Z,73.73
2022-10-19T23:10:31.965Z,74.05
2022-10-19T23:12:58.408Z,74.09
2022-10-19T23:15:24.853Z,73.92
2022-10-19T23:17:51.278Z,74.02
2022-10-19T23:20:17.755Z,74.24
2022-10-19T23:22:44.182Z,74.32
2022-10-19T23:25:10.600Z,74.17
2022-10-19T23:27:37.487Z,74.26
2022-10-19T23:30:04.496Z,74.09
2022-10-19T23:32:30.956Z,74.54
2022-10-19T23:34:57.415Z,74.73
2022-10-19T23:37:23.960Z,74.39
2022-10-19T23:39:50.411Z,74.89
2022-10-19T23:42:16.844Z,74.65
2022-10-19T23:44:43.283Z,74.87
2022-10-19T23:47:09.731Z,74.47
2022-10-19T23:49:36.177Z,75.08
2022-10-19T23:52:02.645Z,74.79
2022-10-19T23:54:29.080Z,74.87
2022-10-19T23:56:55.518Z,75.50
2022-10-19T23:59:21.978Z,75.19
